createdAt,value
2022-10-01T00:02:54.185Z,9.06
2022-10-01T00:17:59.715Z,9.06
2022-10-01T00:23:08.816Z,9
2022-10-01T00:28:17.892Z,9
2022-10-01T00:33:30.435Z,8.94
2022-10-01T00:38:39.370Z,9
2022-10-01T00:43:51.274Z,8.94
2022-10-01T00:49:00.406Z,9
2022-10-01T00:54:09.502Z,8.94
2022-10-01T00:59:18.363Z,8.88
2022-10-01T01:04:27.339Z,8.94
2022-10-01T01:09:36.329Z,9.06
2022-10-01T01:14:45.574Z,9.13
2022-10-01T01:19:54.602Z,9.19
2022-10-01T01:25:03.595Z,9.25
2022-10-01T01:30:12.599Z,9.25
2022-10-01T01:35:21.604Z,9.25
2022-10-01T01:40:30.589Z,9.31
2022-10-01T01:45:39.509Z,9.25
2022-10-01T01:50:48.527Z,9.25
2022-10-01T01:55:57.685Z,9.31
2022-10-01T02:06:04.801Z,9.25
2022-10-01T02:11:13.856Z,9.19
2022-10-01T02:16:22.897Z,9.13
2022-10-01T02:21:32.329Z,9.19
2022-10-01T02:26:41.161Z,9.19
2022-10-01T02:31:50.223Z,9.25
2022-10-01T02:36:59.388Z,9.25
2022-10-01T02:42:08.903Z,9.31
2022-10-01T02:47:17.863Z,9.31
2022-10-01T02:52:26.965Z,9.31
2022-10-01T02:57:35.863Z,9.31
2022-10-01T03:02:44.972Z,9.38
2022-10-01T03:07:53.813Z,9.38
2022-10-01T03:13:02.827Z,9.44
2022-10-01T03:18:11.740Z,9.44
2022-10-01T03:23:20.903Z,9.44
2022-10-01T03:33:27.892Z,9.5
2022-10-01T03:38:37.083Z,9.56
2022-10-01T03:43:46.088Z,9.63
2022-10-01T03:48:55.205Z,9.69
2022-10-01T03:54:04.284Z,9.69
2022-10-01T03:59:13.126Z,9.81
2022-10-01T04:04:22.177Z,9.81
2022-10-01T04:09:31.291Z,9.88
2022-10-01T04:14:40.135Z,9.94
2022-10-01T04:34:43.333Z,9.88
2022-10-01T04:44:50.617Z,9.69
2022-10-01T04:49:59.547Z,9.5
2022-10-01T05:00:17.307Z,9.44
2022-10-01T05:20:20.931Z,9.44
2022-10-01T05:35:26.610Z,9.44
2022-10-01T05:40:35.521Z,9.44
2022-10-01T05:50:53.489Z,9.5
2022-10-01T05:56:02.487Z,9.5
2022-10-01T06:01:11.479Z,9.56
2022-10-01T06:06:20.345Z,9.56
2022-10-01T06:11:29.345Z,9.63
2022-10-01T06:26:34.746Z,9.69
2022-10-01T06:31:43.804Z,9.69
2022-10-01T06:36:52.802Z,9.75
2022-10-01T06:42:01.876Z,9.81
2022-10-01T06:52:08.959Z,9.81
2022-10-01T06:57:18.010Z,9.81
2022-10-01T07:07:36.424Z,9.88
2022-10-01T07:12:45.692Z,9.88
2022-10-01T07:17:54.612Z,9.88
2022-10-01T07:23:03.538Z,9.94
2022-10-01T07:28:12.625Z,10
2022-10-01T07:33:21.820Z,9.94
2022-10-01T07:38:30.707Z,10.06
2022-10-01T07:43:39.774Z,10.06
2022-10-01T07:48:48.802Z,10.13
2022-10-01T07:53:58.220Z,10.19
2022-10-01T07:59:07.348Z,10.19
2022-10-01T08:09:25.236Z,10.25
2022-10-01T08:14:34.359Z,10.25
2022-10-01T08:19:43.266Z,10.25
2022-10-01T08:24:52.324Z,10.25
2022-10-01T08:30:01.170Z,10.13
2022-10-01T08:35:10.155Z,10.06
2022-10-01T08:40:19.179Z,10.06
2022-10-01T08:45:28.234Z,10.06
2022-10-01T08:50:37.167Z,10.06
2022-10-01T09:00:44.650Z,10.06
2022-10-01T09:05:53.601Z,10.13
2022-10-01T09:25:57.727Z,10.31
2022-10-01T09:31:06.709Z,10.38
2022-10-01T09:36:15.554Z,10.44
2022-10-01T09:41:24.647Z,10.44
2022-10-01T09:46:33.622Z,10.56
2022-10-01T09:51:45.964Z,10.56
2022-10-01T09:56:54.706Z,10.63
2022-10-01T10:02:03.761Z,10.63
2022-10-01T10:07:12.442Z,10.69
2022-10-01T10:17:30.771Z,10.88
2022-10-01T10:22:39.830Z,10.88
2022-10-01T10:27:48.908Z,11
2022-10-01T10:32:57.977Z,11
2022-10-01T10:53:13.006Z,11.63
2022-10-01T10:58:21.895Z,11.63
2022-10-01T11:03:30.973Z,11.63
2022-10-01T11:08:40.173Z,11.63
2022-10-01T11:13:49.089Z,11.69
2022-10-01T11:18:58.134Z,11.94
2022-10-01T11:24:07.145Z,11.88
2022-10-01T11:29:16.140Z,12
2022-10-01T11:34:25.219Z,12
2022-10-01T11:39:34.438Z,12
2022-10-01T11:44:43.500Z,12
2022-10-01T11:49:52.766Z,11.94
2022-10-01T11:55:01.664Z,12
2022-10-01T12:15:07.176Z,12.31
2022-10-01T12:20:15.493Z,12.25
2022-10-01T12:25:24.637Z,12.19
2022-10-01T12:30:33.585Z,12.13
2022-10-01T12:35:42.683Z,12.25
2022-10-01T12:40:51.753Z,12.31
2022-10-01T12:46:00.729Z,12.37
2022-10-01T12:51:09.727Z,12.44
2022-10-01T12:56:21.745Z,12.56
2022-10-01T13:01:31.061Z,12.63
2022-10-01T13:21:34.914Z,12.88
2022-10-01T13:26:43.913Z,13.06
2022-10-01T13:46:58.839Z,13.44
2022-10-01T13:52:07.910Z,13.56
2022-10-01T13:57:16.942Z,13.75
2022-10-01T14:02:26.155Z,13.56
2022-10-01T14:07:34.988Z,13.56
2022-10-01T14:12:44.096Z,13.75
2022-10-01T14:17:53.230Z,13.88
2022-10-01T14:23:04.899Z,13.88
2022-10-01T14:28:14.028Z,14
2022-10-01T14:33:23.165Z,14.13
2022-10-01T14:38:34.355Z,14.19
2022-10-01T14:43:43.317Z,14.13
2022-10-01T14:48:52.290Z,14.06
2022-10-01T14:59:07.076Z,13.94
2022-10-01T15:04:16.230Z,13.94
2022-10-01T15:09:25.022Z,13.94
2022-10-01T15:14:33.924Z,13.88
2022-10-01T15:19:42.963Z,13.81
2022-10-01T15:24:52.025Z,13.81
2022-10-01T15:30:01.099Z,13.88
2022-10-01T15:35:10.028Z,13.81
2022-10-01T15:40:18.907Z,13.81
2022-10-01T15:45:27.975Z,13.75
2022-10-01T15:50:37.012Z,13.69
2022-10-01T16:05:41.846Z,13.44
2022-10-01T16:10:53.893Z,13.31
2022-10-01T16:16:03.062Z,13.25
2022-10-01T16:21:11.982Z,13.13
2022-10-01T16:26:20.950Z,13.06
2022-10-01T16:41:36.807Z,12.94
2022-10-01T16:46:45.731Z,12.94
2022-10-01T16:51:54.832Z,12.94
2022-10-01T16:57:03.858Z,12.94
2022-10-01T17:02:12.840Z,12.88
2022-10-01T17:07:21.708Z,12.88
2022-10-01T17:12:30.877Z,13
2022-10-01T17:27:36.402Z,12.94
2022-10-01T17:32:45.403Z,12.94
2022-10-01T17:37:54.452Z,12.94
2022-10-01T17:43:03.506Z,12.94
2022-10-01T17:48:12.535Z,12.88
2022-10-01T17:53:21.285Z,12.88
2022-10-01T17:58:30.236Z,12.94
2022-10-01T18:03:39.480Z,12.88
2022-10-01T18:08:55.365Z,12.88
2022-10-01T18:14:00.451Z,12.81
2022-10-01T18:29:27.659Z,12.81
2022-10-01T18:34:36.733Z,12.81
2022-10-01T18:44:54.843Z,12.94
2022-10-01T18:50:03.702Z,13
2022-10-01T18:55:12.740Z,13
2022-10-01T19:00:21.985Z,13
2022-10-01T19:25:34.395Z,13.06
2022-10-01T19:30:43.239Z,13.06
2022-10-01T19:35:52.195Z,13
2022-10-01T19:41:01.417Z,13
2022-10-01T19:46:10.308Z,13
2022-10-01T19:51:19.310Z,12.88
2022-10-01T19:56:28.313Z,12.81
2022-10-01T20:01:37.312Z,12.81
2022-10-01T20:06:46.191Z,12.75
2022-10-01T20:11:55.122Z,12.69
2022-10-01T20:17:03.925Z,12.63
2022-10-01T20:22:13.224Z,12.63
2022-10-01T20:32:31.315Z,12.69
2022-10-01T20:37:40.295Z,12.69
2022-10-01T20:42:49.259Z,12.69
2022-10-01T20:47:58.120Z,12.75
2022-10-01T20:53:07.129Z,12.75
2022-10-01T20:58:16.073Z,12.75
2022-10-01T21:03:25.119Z,12.75
2022-10-01T21:08:34.159Z,12.75
2022-10-01T21:13:43.210Z,12.75
2022-10-01T21:18:52.234Z,12.69
2022-10-01T21:24:01.399Z,12.69
2022-10-01T21:29:10.443Z,12.69
2022-10-01T21:34:19.485Z,12.69
2022-10-01T21:39:28.423Z,12.63
2022-10-01T21:44:37.443Z,12.63
2022-10-01T21:49:46.447Z,12.63
2022-10-01T21:54:55.719Z,12.56
2022-10-01T22:00:04.647Z,12.56
2022-10-01T22:05:13.650Z,12.56
2022-10-01T22:10:22.759Z,12.56
2022-10-01T22:15:31.694Z,12.44
2022-10-01T22:20:40.777Z,12.37
2022-10-01T22:25:49.603Z,12.25
2022-10-01T22:30:58.821Z,12.13
2022-10-01T22:36:07.878Z,12.06
2022-10-01T22:41:16.825Z,12
2022-10-01T22:46:25.995Z,12
2022-10-01T22:51:35.042Z,11.94
2022-10-01T22:56:43.908Z,11.94
2022-10-01T23:01:52.894Z,12
2022-10-01T23:07:02.056Z,12
2022-10-01T23:12:11.123Z,12
2022-10-01T23:17:20.036Z,12
2022-10-01T23:22:29.121Z,12.06
2022-10-01T23:37:34.446Z,12.25
2022-10-01T23:42:43.536Z,12.25
2022-10-01T23:47:52.516Z,12.31
2022-10-01T23:53:01.547Z,12.44
2022-10-01T23:58:10.605Z,12.56
